Lexington, Texas
Current Conditions -  °F | °C
As of 12:35 PM on Saturday 25 Oct 2014 (Local Time) from KGYB Reporting Station
Clear Clear  
Wind Chill: 81°   Ceiling: Unl
Heat Index: 81°   Visibility: 7mi
Dew Point: 58°   Wind: 5mph
Humidity: 46%   Direction: 220°SW
Pressure: 30.2"   Gusts: NA
Location:  30.42°N, 97.01°W
Report Text: KGYB 251735Z AUTO 22004KT 7SM CLR 27/15 A3020 RMK AO2 T02710146
Loading
Personal Weather Stations






























Interactive Weather Map
Tropical Storm Tracking
New forecast layout! Learn more

10-Day Weather Forecast

Advertisements
Track Severe Weather on mobile